sensor_id;sensor_type;location;lat;lon;timestamp;pressure;altitude;pressure_sealevel;temperature;humidity
10700;BME280;5401;41.986;21.452;2023-02-18T00:00:55;99424.09;;;5.79;53.09
10700;BME280;5401;41.986;21.452;2023-02-18T00:03:24;99425.63;;;5.81;53.07
10700;BME280;5401;41.986;21.452;2023-02-18T00:05:54;99423.50;;;5.85;53.13
10700;BME280;5401;41.986;21.452;2023-02-18T00:08:22;99426.00;;;5.86;53.04
10700;BME280;5401;41.986;21.452;2023-02-18T00:10:49;99419.47;;;5.81;53.16
10700;BME280;5401;41.986;21.452;2023-02-18T00:13:18;99423.63;;;5.83;52.92
10700;BME280;5401;41.986;21.452;2023-02-18T00:15:45;99425.78;;;5.80;53.00
10700;BME280;5401;41.986;21.452;2023-02-18T00:18:13;99422.19;;;5.71;53.20
10700;BME280;5401;41.986;21.452;2023-02-18T00:20:40;99398.16;;;5.48;53.00
10700;BME280;5401;41.986;21.452;2023-02-18T00:23:09;99425.59;;;5.56;53.40
10700;BME280;5401;41.986;21.452;2023-02-18T00:25:37;99416.88;;;5.46;53.54
10700;BME280;5401;41.986;21.452;2023-02-18T00:28:04;99398.38;;;5.37;53.88
10700;BME280;5401;41.986;21.452;2023-02-18T00:30:32;99418.53;;;5.47;53.93
10700;BME280;5401;41.986;21.452;2023-02-18T00:32:59;99410.28;;;5.50;53.55
10700;BME280;5401;41.986;21.452;2023-02-18T00:35:27;99407.63;;;5.50;53.45
10700;BME280;5401;41.986;21.452;2023-02-18T00:37:54;99405.94;;;5.49;53.98
10700;BME280;5401;41.986;21.452;2023-02-18T00:40:25;99396.47;;;5.47;53.38
10700;BME280;5401;41.986;21.452;2023-02-18T00:42:53;99393.34;;;5.51;53.73
10700;BME280;5401;41.986;21.452;2023-02-18T00:45:21;99378.25;;;5.52;53.18
10700;BME280;5401;41.986;21.452;2023-02-18T00:47:48;99379.25;;;5.51;53.74
10700;BME280;5401;41.986;21.452;2023-02-18T00:50:16;99383.56;;;5.52;53.33
10700;BME280;5401;41.986;21.452;2023-02-18T00:52:43;99378.72;;;5.47;53.40
10700;BME280;5401;41.986;21.452;2023-02-18T00:55:12;99365.03;;;5.34;53.74
10700;BME280;5401;41.986;21.452;2023-02-18T00:57:41;99375.13;;;5.31;53.63
10700;BME280;5401;41.986;21.452;2023-02-18T01:00:10;99367.06;;;5.15;53.66
10700;BME280;5401;41.986;21.452;2023-02-18T01:02:38;99328.50;;;4.86;53.67
10700;BME280;5401;41.986;21.452;2023-02-18T01:05:05;99378.50;;;5.16;53.79
10700;BME280;5401;41.986;21.452;2023-02-18T01:07:33;99367.06;;;5.15;53.52
10700;BME280;5401;41.986;21.452;2023-02-18T01:10:00;99365.53;;;5.13;53.83
10700;BME280;5401;41.986;21.452;2023-02-18T01:12:28;99358.69;;;5.10;53.77
10700;BME280;5401;41.986;21.452;2023-02-18T01:14:57;99343.41;;;5.04;53.75
10700;BME280;5401;41.986;21.452;2023-02-18T01:17:26;99356.53;;;5.06;54.09
10700;BME280;5401;41.986;21.452;2023-02-18T01:19:54;99348.19;;;5.01;53.55
10700;BME280;5401;41.986;21.452;2023-02-18T01:22:22;99352.97;;;4.97;54.10
10700;BME280;5401;41.986;21.452;2023-02-18T01:24:49;99347.28;;;4.93;53.89
10700;BME280;5401;41.986;21.452;2023-02-18T01:27:17;99344.94;;;4.90;54.23
10700;BME280;5401;41.986;21.452;2023-02-18T01:29:44;99343.59;;;4.86;54.57
10700;BME280;5401;41.986;21.452;2023-02-18T01:32:13;99334.59;;;4.79;54.51
10700;BME280;5401;41.986;21.452;2023-02-18T01:34:41;99345.88;;;4.81;54.11
10700;BME280;5401;41.986;21.452;2023-02-18T01:37:08;99343.44;;;4.70;54.26
10700;BME280;5401;41.986;21.452;2023-02-18T01:39:36;99334.66;;;4.52;54.83
10700;BME280;5401;41.986;21.452;2023-02-18T01:42:04;99327.28;;;4.46;54.20
10700;BME280;5401;41.986;21.452;2023-02-18T01:44:32;99342.59;;;4.52;54.27
10700;BME280;5401;41.986;21.452;2023-02-18T01:47:00;99327.47;;;4.45;54.53
10700;BME280;5401;41.986;21.452;2023-02-18T01:49:31;99319.56;;;4.35;54.91
10700;BME280;5401;41.986;21.452;2023-02-18T01:52:03;99327.66;;;4.34;55.03
10700;BME280;5401;41.986;21.452;2023-02-18T01:54:33;99336.63;;;4.33;55.36
10700;BME280;5401;41.986;21.452;2023-02-18T01:57:07;99330.31;;;4.34;55.43
10700;BME280;5401;41.986;21.452;2023-02-18T01:59:39;99326.00;;;4.33;55.10
10700;BME280;5401;41.986;21.452;2023-02-18T02:02:12;99328.91;;;4.39;54.64
10700;BME280;5401;41.986;21.452;2023-02-18T02:04:42;99336.03;;;4.39;54.73
10700;BME280;5401;41.986;21.452;2023-02-18T02:07:09;99341.09;;;4.32;54.74
10700;BME280;5401;41.986;21.452;2023-02-18T02:09:38;99331.78;;;4.28;55.65
10700;BME280;5401;41.986;21.452;2023-02-18T02:12:37;99325.25;;;4.23;55.05
10700;BME280;5401;41.986;21.452;2023-02-18T02:15:23;99319.41;;;4.20;55.85
10700;BME280;5401;41.986;21.452;2023-02-18T02:18:11;99339.72;;;4.28;55.15
10700;BME280;5401;41.986;21.452;2023-02-18T02:27:40;99336.22;;;4.11;55.52
10700;BME280;5401;41.986;21.452;2023-02-18T02:30:39;99354.03;;;4.18;55.11
10700;BME280;5401;41.986;21.452;2023-02-18T02:36:30;99321.19;;;4.02;55.09
10700;BME280;5401;41.986;21.452;2023-02-18T02:39:08;99355.13;;;4.16;55.51
10700;BME280;5401;41.986;21.452;2023-02-18T02:41:47;99330.59;;;3.96;54.79
10700;BME280;5401;41.986;21.452;2023-02-18T02:44:21;99356.88;;;4.07;55.42
10700;BME280;5401;41.986;21.452;2023-02-18T02:46:58;99350.84;;;3.88;55.94
10700;BME280;5401;41.986;21.452;2023-02-18T02:49:35;99370.06;;;3.90;55.13
10700;BME280;5401;41.986;21.452;2023-02-18T02:52:10;99368.38;;;3.89;55.84
10700;BME280;5401;41.986;21.452;2023-02-18T02:54:39;99371.63;;;3.83;55.72
10700;BME280;5401;41.986;21.452;2023-02-18T02:57:40;99365.78;;;3.80;55.57
10700;BME280;5401;41.986;21.452;2023-02-18T03:00:09;99347.31;;;3.70;55.93
10700;BME280;5401;41.986;21.452;2023-02-18T03:02:48;99359.84;;;3.68;56.05
10700;BME280;5401;41.986;21.452;2023-02-18T03:05:32;99380.00;;;3.79;56.12
10700;BME280;5401;41.986;21.452;2023-02-18T03:08:18;99377.38;;;3.79;56.18
10700;BME280;5401;41.986;21.452;2023-02-18T03:10:55;99386.00;;;3.81;56.00
10700;BME280;5401;41.986;21.452;2023-02-18T03:13:36;99378.06;;;3.81;56.13
10700;BME280;5401;41.986;21.452;2023-02-18T03:16:13;99375.41;;;3.81;56.31
10700;BME280;5401;41.986;21.452;2023-02-18T03:18:56;99376.66;;;3.86;55.52
10700;BME280;5401;41.986;21.452;2023-02-18T03:21:29;99362.06;;;3.73;56.14
10700;BME280;5401;41.986;21.452;2023-02-18T03:24:01;99370.09;;;3.81;56.21
10700;BME280;5401;41.986;21.452;2023-02-18T03:26:30;99381.97;;;3.77;56.10
10700;BME280;5401;41.986;21.452;2023-02-18T03:29:02;99375.44;;;3.71;55.46
10700;BME280;5401;41.986;21.452;2023-02-18T03:31:33;99380.72;;;3.71;56.36
10700;BME280;5401;41.986;21.452;2023-02-18T03:34:06;99373.38;;;3.65;55.44
10700;BME280;5401;41.986;21.452;2023-02-18T03:36:37;99383.00;;;3.66;55.44
10700;BME280;5401;41.986;21.452;2023-02-18T03:39:09;99370.78;;;3.56;56.24
10700;BME280;5401;41.986;21.452;2023-02-18T03:41:38;99381.09;;;3.50;56.45
10700;BME280;5401;41.986;21.452;2023-02-18T03:44:07;99383.22;;;3.37;56.58
10700;BME280;5401;41.986;21.452;2023-02-18T03:46:36;99382.72;;;3.05;56.80
10700;BME280;5401;41.986;21.452;2023-02-18T03:49:04;99397.22;;;2.92;56.19
10700;BME280;5401;41.986;21.452;2023-02-18T03:51:32;99403.88;;;2.68;57.00
10700;BME280;5401;41.986;21.452;2023-02-18T03:54:00;99417.66;;;2.62;56.78
10700;BME280;5401;41.986;21.452;2023-02-18T03:56:29;99421.81;;;2.64;57.05
10700;BME280;5401;41.986;21.452;2023-02-18T03:58:56;99430.06;;;2.71;57.87
10700;BME280;5401;41.986;21.452;2023-02-18T04:01:24;99430.88;;;2.81;57.66
10700;BME280;5401;41.986;21.452;2023-02-18T04:03:52;99428.53;;;2.87;57.62
10700;BME280;5401;41.986;21.452;2023-02-18T04:06:20;99428.38;;;2.98;57.05
10700;BME280;5401;41.986;21.452;2023-02-18T04:08:47;99435.63;;;3.05;57.33
10700;BME280;5401;41.986;21.452;2023-02-18T04:11:15;99427.16;;;3.11;57.65
10700;BME280;5401;41.986;21.452;2023-02-18T04:13:44;99430.19;;;3.16;56.88
10700;BME280;5401;41.986;21.452;2023-02-18T04:16:12;99431.28;;;3.23;56.61
10700;BME280;5401;41.986;21.452;2023-02-18T04:18:40;99416.25;;;3.23;57.20
10700;BME280;5401;41.986;21.452;2023-02-18T04:21:07;99419.44;;;3.27;57.12
10700;BME280;5401;41.986;21.452;2023-02-18T04:23:35;99430.16;;;3.35;56.66
10700;BME280;5401;41.986;21.452;2023-02-18T04:26:03;99425.03;;;3.33;56.92
10700;BME280;5401;41.986;21.452;2023-02-18T04:28:30;99435.31;;;3.36;57.12
10700;BME280;5401;41.986;21.452;2023-02-18T04:30:59;99419.31;;;3.28;56.31
10700;BME280;5401;41.986;21.452;2023-02-18T04:33:27;99432.09;;;3.33;57.28
10700;BME280;5401;41.986;21.452;2023-02-18T04:35:54;99444.38;;;3.34;56.88
10700;BME280;5401;41.986;21.452;2023-02-18T04:38:22;99441.47;;;3.27;57.21
10700;BME280;5401;41.986;21.452;2023-02-18T04:40:50;99443.13;;;3.28;56.82
10700;BME280;5401;41.986;21.452;2023-02-18T04:43:17;99444.38;;;3.34;57.36
10700;BME280;5401;41.986;21.452;2023-02-18T04:45:45;99442.25;;;3.37;57.40
10700;BME280;5401;41.986;21.452;2023-02-18T04:48:14;99439.63;;;3.37;56.50
10700;BME280;5401;41.986;21.452;2023-02-18T04:50:42;99435.63;;;3.33;57.39
10700;BME280;5401;41.986;21.452;2023-02-18T04:53:10;99440.47;;;3.38;57.25
10700;BME280;5401;41.986;21.452;2023-02-18T04:55:38;99438.66;;;3.38;57.46
10700;BME280;5401;41.986;21.452;2023-02-18T04:58:05;99439.47;;;3.39;57.40
10700;BME280;5401;41.986;21.452;2023-02-18T05:00:35;99437.25;;;3.34;57.07
10700;BME280;5401;41.986;21.452;2023-02-18T05:03:02;99434.50;;;3.36;56.63
10700;BME280;5401;41.986;21.452;2023-02-18T05:05:31;99415.97;;;3.26;57.01
10700;BME280;5401;41.986;21.452;2023-02-18T05:07:58;99442.00;;;3.40;57.41
10700;BME280;5401;41.986;21.452;2023-02-18T05:10:26;99442.94;;;3.39;57.42
10700;BME280;5401;41.986;21.452;2023-02-18T05:12:54;99445.91;;;3.36;56.85
10700;BME280;5401;41.986;21.452;2023-02-18T05:15:21;99451.75;;;3.40;56.99
10700;BME280;5401;41.986;21.452;2023-02-18T05:17:48;99440.75;;;3.35;56.73
10700;BME280;5401;41.986;21.452;2023-02-18T05:20:17;99437.13;;;3.36;56.62
10700;BME280;5401;41.986;21.452;2023-02-18T05:22:46;99440.59;;;3.46;57.54
10700;BME280;5401;41.986;21.452;2023-02-18T05:25:13;99440.44;;;3.47;57.47
10700;BME280;5401;41.986;21.452;2023-02-18T05:27:40;99442.94;;;3.49;56.75
10700;BME280;5401;41.986;21.452;2023-02-18T05:30:08;99434.19;;;3.48;57.45
10700;BME280;5401;41.986;21.452;2023-02-18T05:32:36;99438.66;;;3.48;56.56
10700;BME280;5401;41.986;21.452;2023-02-18T05:35:04;99436.69;;;3.40;57.36
10700;BME280;5401;41.986;21.452;2023-02-18T05:37:32;99437.41;;;3.33;56.98
10700;BME280;5401;41.986;21.452;2023-02-18T05:40:01;99443.00;;;3.30;56.69
10700;BME280;5401;41.986;21.452;2023-02-18T05:42:28;99439.66;;;3.28;57.31
10700;BME280;5401;41.986;21.452;2023-02-18T05:44:55;99421.00;;;3.29;57.85
10700;BME280;5401;41.986;21.452;2023-02-18T05:47:23;99407.28;;;3.43;56.85
10700;BME280;5401;41.986;21.452;2023-02-18T05:49:51;99433.53;;;3.82;57.59
10700;BME280;5401;41.986;21.452;2023-02-18T05:52:20;99432.84;;;4.16;56.91
10700;BME280;5401;41.986;21.452;2023-02-18T05:54:48;99430.69;;;4.46;57.13
10700;BME280;5401;41.986;21.452;2023-02-18T05:57:17;99425.44;;;4.63;55.84
10700;BME280;5401;41.986;21.452;2023-02-18T05:59:44;99433.53;;;4.96;55.19
10700;BME280;5401;41.986;21.452;2023-02-18T06:02:12;99437.19;;;5.30;55.14
10700;BME280;5401;41.986;21.452;2023-02-18T06:04:39;99451.69;;;5.61;54.67
10700;BME280;5401;41.986;21.452;2023-02-18T06:07:07;99427.34;;;5.90;54.09
10700;BME280;5401;41.986;21.452;2023-02-18T06:09:34;99449.28;;;6.25;53.95
10700;BME280;5401;41.986;21.452;2023-02-18T06:12:02;99449.00;;;6.36;53.59
10700;BME280;5401;41.986;21.452;2023-02-18T06:14:31;99447.22;;;6.52;53.18
10700;BME280;5401;41.986;21.452;2023-02-18T06:16:59;99450.69;;;6.94;53.10
10700;BME280;5401;41.986;21.452;2023-02-18T06:19:26;99451.59;;;7.49;52.07
10700;BME280;5401;41.986;21.452;2023-02-18T06:21:54;99463.06;;;7.74;51.28
10700;BME280;5401;41.986;21.452;2023-02-18T06:24:22;99458.72;;;7.73;51.22
10700;BME280;5401;41.986;21.452;2023-02-18T06:26:49;99445.41;;;7.65;51.16
10700;BME280;5401;41.986;21.452;2023-02-18T06:29:17;99473.16;;;8.02;51.61
10700;BME280;5401;41.986;21.452;2023-02-18T06:31:46;99463.28;;;8.26;50.68
10700;BME280;5401;41.986;21.452;2023-02-18T06:34:14;99470.25;;;8.51;50.73
10700;BME280;5401;41.986;21.452;2023-02-18T06:36:41;99468.84;;;8.92;49.49
10700;BME280;5401;41.986;21.452;2023-02-18T06:39:09;99476.59;;;9.10;48.76
10700;BME280;5401;41.986;21.452;2023-02-18T06:41:37;99471.34;;;9.24;48.73
10700;BME280;5401;41.986;21.452;2023-02-18T06:44:05;99439.09;;;9.03;49.08
10700;BME280;5401;41.986;21.452;2023-02-18T06:46:33;99479.34;;;9.24;48.25
10700;BME280;5401;41.986;21.452;2023-02-18T06:49:02;99484.69;;;9.46;47.88
10700;BME280;5401;41.986;21.452;2023-02-18T06:51:29;99478.53;;;9.90;47.96
10700;BME280;5401;41.986;21.452;2023-02-18T06:53:57;99471.09;;;10.29;47.93
10700;BME280;5401;41.986;21.452;2023-02-18T06:56:24;99491.59;;;10.65;46.88
10700;BME280;5401;41.986;21.452;2023-02-18T06:58:52;99484.38;;;10.94;46.93
10700;BME280;5401;41.986;21.452;2023-02-18T07:01:19;99490.91;;;11.05;46.78
10700;BME280;5401;41.986;21.452;2023-02-18T07:03:47;99488.75;;;11.15;46.78
10700;BME280;5401;41.986;21.452;2023-02-18T07:06:16;99497.69;;;11.22;46.99
10700;BME280;5401;41.986;21.452;2023-02-18T07:08:43;99484.72;;;11.05;47.07
10700;BME280;5401;41.986;21.452;2023-02-18T07:11:11;99489.47;;;11.24;47.37
10700;BME280;5401;41.986;21.452;2023-02-18T07:13:39;99482.44;;;11.23;47.46
10700;BME280;5401;41.986;21.452;2023-02-18T07:16:07;99489.34;;;11.32;47.41
10700;BME280;5401;41.986;21.452;2023-02-18T07:18:34;99490.16;;;11.46;47.42
10700;BME280;5401;41.986;21.452;2023-02-18T07:21:02;99479.13;;;11.56;47.50
10700;BME280;5401;41.986;21.452;2023-02-18T07:23:32;99487.41;;;11.81;48.02
10700;BME280;5401;41.986;21.452;2023-02-18T07:26:04;99467.56;;;12.03;47.05
10700;BME280;5401;41.986;21.452;2023-02-18T07:28:31;99462.25;;;12.10;46.79
10700;BME280;5401;41.986;21.452;2023-02-18T07:30:59;99490.84;;;12.23;47.21
10700;BME280;5401;41.986;21.452;2023-02-18T07:33:27;99487.13;;;12.18;47.58
10700;BME280;5401;41.986;21.452;2023-02-18T07:35:56;99486.81;;;12.07;47.54
10700;BME280;5401;41.986;21.452;2023-02-18T07:38:24;99492.72;;;11.96;47.65
10700;BME280;5401;41.986;21.452;2023-02-18T07:40:54;99450.25;;;11.58;47.76
10700;BME280;5401;41.986;21.452;2023-02-18T07:43:22;99462.97;;;11.70;47.69
10700;BME280;5401;41.986;21.452;2023-02-18T07:45:50;99474.44;;;11.85;47.51
10700;BME280;5401;41.986;21.452;2023-02-18T07:48:17;99483.38;;;11.92;47.20
10700;BME280;5401;41.986;21.452;2023-02-18T07:50:46;99481.41;;;11.79;47.75
10700;BME280;5401;41.986;21.452;2023-02-18T07:53:15;99461.91;;;11.71;47.75
10700;BME280;5401;41.986;21.452;2023-02-18T07:55:43;99458.53;;;11.83;47.30
10700;BME280;5401;41.986;21.452;2023-02-18T07:58:20;99472.78;;;12.11;47.82
10700;BME280;5401;41.986;21.452;2023-02-18T08:00:49;99469.97;;;12.19;46.68
10700;BME280;5401;41.986;21.452;2023-02-18T08:03:18;99474.75;;;12.23;46.98
10700;BME280;5401;41.986;21.452;2023-02-18T08:05:47;99480.03;;;12.11;47.40
10700;BME280;5401;41.986;21.452;2023-02-18T08:08:17;99466.16;;;12.07;47.39
10700;BME280;5401;41.986;21.452;2023-02-18T08:10:46;99479.75;;;11.78;46.78
10700;BME280;5401;41.986;21.452;2023-02-18T08:13:14;99478.38;;;11.62;47.44
10700;BME280;5401;41.986;21.452;2023-02-18T08:15:43;99474.00;;;11.61;47.33
10700;BME280;5401;41.986;21.452;2023-02-18T08:18:15;99471.84;;;11.71;47.56
10700;BME280;5401;41.986;21.452;2023-02-18T08:20:43;99472.78;;;11.84;46.90
10700;BME280;5401;41.986;21.452;2023-02-18T08:23:13;99448.66;;;11.63;46.64
10700;BME280;5401;41.986;21.452;2023-02-18T08:25:44;99466.34;;;11.78;47.08
10700;BME280;5401;41.986;21.452;2023-02-18T08:28:12;99460.97;;;11.78;47.06
10700;BME280;5401;41.986;21.452;2023-02-18T08:30:44;99467.34;;;11.98;47.10
10700;BME280;5401;41.986;21.452;2023-02-18T08:33:12;99453.69;;;12.20;46.14
10700;BME280;5401;41.986;21.452;2023-02-18T08:35:40;99440.22;;;12.14;47.00
10700;BME280;5401;41.986;21.452;2023-02-18T08:38:07;99453.75;;;12.33;46.86
10700;BME280;5401;41.986;21.452;2023-02-18T08:40:35;99440.72;;;12.30;46.70
10700;BME280;5401;41.986;21.452;2023-02-18T08:43:03;99430.38;;;12.27;46.55
10700;BME280;5401;41.986;21.452;2023-02-18T08:45:31;99424.97;;;12.21;46.21
10700;BME280;5401;41.986;21.452;2023-02-18T08:48:00;99445.50;;;12.35;46.56
10700;BME280;5401;41.986;21.452;2023-02-18T08:50:28;99445.38;;;12.49;46.31
10700;BME280;5401;41.986;21.452;2023-02-18T08:52:56;99445.03;;;12.58;45.99
10700;BME280;5401;41.986;21.452;2023-02-18T08:55:26;99432.88;;;12.62;46.05
10700;BME280;5401;41.986;21.452;2023-02-18T08:57:54;99415.72;;;12.70;45.65
10700;BME280;5401;41.986;21.452;2023-02-18T09:00:22;99435.31;;;12.97;45.30
10700;BME280;5401;41.986;21.452;2023-02-18T09:02:50;99433.91;;;13.20;44.83
10700;BME280;5401;41.986;21.452;2023-02-18T09:05:19;99422.34;;;13.26;44.81
10700;BME280;5401;41.986;21.452;2023-02-18T09:07:46;99414.97;;;13.41;44.80
10700;BME280;5401;41.986;21.452;2023-02-18T09:10:15;99401.69;;;13.53;45.19
10700;BME280;5401;41.986;21.452;2023-02-18T09:12:42;99404.00;;;13.75;45.22
10700;BME280;5401;41.986;21.452;2023-02-18T09:15:10;99410.84;;;14.03;44.87
10700;BME280;5401;41.986;21.452;2023-02-18T09:17:38;99419.34;;;14.00;44.20
10700;BME280;5401;41.986;21.452;2023-02-18T09:20:07;99395.13;;;14.00;43.63
10700;BME280;5401;41.986;21.452;2023-02-18T09:22:36;99402.13;;;14.14;44.35
10700;BME280;5401;41.986;21.452;2023-02-18T09:25:05;99404.81;;;14.27;43.41
10700;BME280;5401;41.986;21.452;2023-02-18T09:27:32;99419.47;;;14.50;43.87
10700;BME280;5401;41.986;21.452;2023-02-18T09:30:00;99417.38;;;14.64;43.44
10700;BME280;5401;41.986;21.452;2023-02-18T09:32:28;99401.38;;;14.69;43.71
10700;BME280;5401;41.986;21.452;2023-02-18T09:34:56;99407.91;;;14.86;44.10
10700;BME280;5401;41.986;21.452;2023-02-18T09:37:24;99399.88;;;14.80;43.99
10700;BME280;5401;41.986;21.452;2023-02-18T09:39:53;99380.41;;;14.71;43.47
10700;BME280;5401;41.986;21.452;2023-02-18T09:42:27;99383.59;;;14.99;43.66
10700;BME280;5401;41.986;21.452;2023-02-18T09:44:58;99391.19;;;15.21;43.34
10700;BME280;5401;41.986;21.452;2023-02-18T09:47:31;99382.84;;;15.23;43.43
10700;BME280;5401;41.986;21.452;2023-02-18T09:50:05;99369.81;;;15.20;43.55
10700;BME280;5401;41.986;21.452;2023-02-18T09:52:36;99366.34;;;15.13;43.58
10700;BME280;5401;41.986;21.452;2023-02-18T09:55:17;99365.66;;;15.24;43.68
10700;BME280;5401;41.986;21.452;2023-02-18T09:57:48;99356.16;;;15.45;43.41
10700;BME280;5401;41.986;21.452;2023-02-18T10:00:19;99349.28;;;15.49;43.28
10700;BME280;5401;41.986;21.452;2023-02-18T10:02:53;99345.66;;;15.62;43.28
10700;BME280;5401;41.986;21.452;2023-02-18T10:05:22;99345.84;;;15.84;43.07
10700;BME280;5401;41.986;21.452;2023-02-18T10:07:53;99354.22;;;16.01;42.96
10700;BME280;5401;41.986;21.452;2023-02-18T10:10:32;99347.50;;;16.27;42.99
10700;BME280;5401;41.986;21.452;2023-02-18T10:13:02;99329.03;;;16.42;42.41
10700;BME280;5401;41.986;21.452;2023-02-18T10:15:31;99326.03;;;16.68;42.13
10700;BME280;5401;41.986;21.452;2023-02-18T10:18:01;99317.91;;;16.50;42.75
10700;BME280;5401;41.986;21.452;2023-02-18T10:20:31;99327.69;;;16.51;41.99
10700;BME280;5401;41.986;21.452;2023-02-18T10:23:00;99320.91;;;16.60;42.21
10700;BME280;5401;41.986;21.452;2023-02-18T10:25:39;99309.97;;;16.55;41.87
10700;BME280;5401;41.986;21.452;2023-02-18T10:28:09;99315.47;;;16.48;41.84
10700;BME280;5401;41.986;21.452;2023-02-18T10:30:42;99290.47;;;16.35;42.37
10700;BME280;5401;41.986;21.452;2023-02-18T10:33:26;99270.13;;;16.33;42.15
10700;BME280;5401;41.986;21.452;2023-02-18T10:36:05;99293.84;;;16.48;41.99
10700;BME280;5401;41.986;21.452;2023-02-18T10:38:44;99289.63;;;16.52;41.75
10700;BME280;5401;41.986;21.452;2023-02-18T10:41:25;99257.25;;;16.46;41.59
10700;BME280;5401;41.986;21.452;2023-02-18T10:44:02;99275.13;;;16.65;42.17
10700;BME280;5401;41.986;21.452;2023-02-18T10:46:38;99238.50;;;16.62;41.35
10700;BME280;5401;41.986;21.452;2023-02-18T10:49:23;99261.94;;;16.97;41.09
10700;BME280;5401;41.986;21.452;2023-02-18T10:51:55;99248.97;;;16.88;40.61
10700;BME280;5401;41.986;21.452;2023-02-18T10:54:26;99240.84;;;16.77;40.62
10700;BME280;5401;41.986;21.452;2023-02-18T10:57:18;99217.69;;;16.80;40.69
10700;BME280;5401;41.986;21.452;2023-02-18T10:59:59;99248.19;;;16.99;41.51
10700;BME280;5401;41.986;21.452;2023-02-18T11:02:36;99249.13;;;17.04;40.91
10700;BME280;5401;41.986;21.452;2023-02-18T11:05:18;99215.72;;;16.99;41.31
10700;BME280;5401;41.986;21.452;2023-02-18T11:07:50;99228.22;;;17.11;40.90
10700;BME280;5401;41.986;21.452;2023-02-18T11:10:24;99199.94;;;16.96;40.89
10700;BME280;5401;41.986;21.452;2023-02-18T11:12:58;99205.03;;;17.04;41.44
10700;BME280;5401;41.986;21.452;2023-02-18T11:15:28;99190.31;;;17.00;40.61
10700;BME280;5401;41.986;21.452;2023-02-18T11:18:10;99207.91;;;17.20;40.45
10700;BME280;5401;41.986;21.452;2023-02-18T11:20:39;99205.91;;;17.38;40.51
10700;BME280;5401;41.986;21.452;2023-02-18T11:23:18;99208.75;;;17.54;40.62
10700;BME280;5401;41.986;21.452;2023-02-18T11:26:01;99196.25;;;17.65;40.41
10700;BME280;5401;41.986;21.452;2023-02-18T11:28:48;99191.19;;;17.80;40.50
10700;BME280;5401;41.986;21.452;2023-02-18T11:31:35;99182.06;;;17.97;39.51
10700;BME280;5401;41.986;21.452;2023-02-18T11:34:13;99169.38;;;17.86;39.62
10700;BME280;5401;41.986;21.452;2023-02-18T11:36:45;99137.97;;;17.62;39.53
10700;BME280;5401;41.986;21.452;2023-02-18T11:39:18;99137.84;;;17.69;39.67
10700;BME280;5401;41.986;21.452;2023-02-18T11:41:53;99166.44;;;17.87;39.76
10700;BME280;5401;41.986;21.452;2023-02-18T11:44:27;99167.84;;;17.79;39.07
10700;BME280;5401;41.986;21.452;2023-02-18T11:46:58;99164.09;;;17.80;38.79
10700;BME280;5401;41.986;21.452;2023-02-18T11:49:27;99172.09;;;17.86;39.71
10700;BME280;5401;41.986;21.452;2023-02-18T11:52:03;99154.06;;;17.80;39.25
10700;BME280;5401;41.986;21.452;2023-02-18T11:54:31;99152.75;;;17.94;39.24
10700;BME280;5401;41.986;21.452;2023-02-18T11:57:03;99135.22;;;17.85;38.11
10700;BME280;5401;41.986;21.452;2023-02-18T11:59:34;99117.38;;;17.50;39.00
10700;BME280;5401;41.986;21.452;2023-02-18T12:02:21;99141.41;;;17.58;38.50
10700;BME280;5401;41.986;21.452;2023-02-18T12:04:58;99128.81;;;17.63;38.96
10700;BME280;5401;41.986;21.452;2023-02-18T12:07:30;99106.63;;;17.66;38.27
10700;BME280;5401;41.986;21.452;2023-02-18T12:10:03;99119.22;;;17.84;38.66
10700;BME280;5401;41.986;21.452;2023-02-18T12:12:43;99113.84;;;18.00;38.32
10700;BME280;5401;41.986;21.452;2023-02-18T12:15:17;99110.94;;;18.29;37.44
10700;BME280;5401;41.986;21.452;2023-02-18T12:18:10;99092.78;;;18.29;37.54
10700;BME280;5401;41.986;21.452;2023-02-18T12:20:59;99094.88;;;18.55;37.39
10700;BME280;5401;41.986;21.452;2023-02-18T12:23:35;99082.22;;;18.60;37.00
10700;BME280;5401;41.986;21.452;2023-02-18T12:26:17;99075.88;;;18.55;36.79
10700;BME280;5401;41.986;21.452;2023-02-18T12:29:05;99070.91;;;18.36;36.93
10700;BME280;5401;41.986;21.452;2023-02-18T12:31:50;99076.59;;;18.34;37.17
10700;BME280;5401;41.986;21.452;2023-02-18T12:34:37;99045.28;;;18.27;36.61
10700;BME280;5401;41.986;21.452;2023-02-18T12:37:19;99047.41;;;18.25;36.93
10700;BME280;5401;41.986;21.452;2023-02-18T12:40:03;99047.25;;;18.31;36.23
10700;BME280;5401;41.986;21.452;2023-02-18T12:42:45;99064.09;;;18.33;36.51
10700;BME280;5401;41.986;21.452;2023-02-18T12:45:30;99067.22;;;17.98;37.12
10700;BME280;5401;41.986;21.452;2023-02-18T12:48:21;99049.25;;;17.81;36.62
10700;BME280;5401;41.986;21.452;2023-02-18T12:51:05;99042.94;;;17.64;37.68
10700;BME280;5401;41.986;21.452;2023-02-18T12:53:46;99028.19;;;17.44;36.98
10700;BME280;5401;41.986;21.452;2023-02-18T12:56:34;99034.63;;;17.43;37.61
10700;BME280;5401;41.986;21.452;2023-02-18T12:59:12;99047.34;;;17.53;37.40
10700;BME280;5401;41.986;21.452;2023-02-18T13:01:53;99032.06;;;17.48;37.10
10700;BME280;5401;41.986;21.452;2023-02-18T13:04:49;99018.94;;;17.67;37.91
10700;BME280;5401;41.986;21.452;2023-02-18T13:07:53;99033.03;;;17.97;36.87
10700;BME280;5401;41.986;21.452;2023-02-18T13:10:51;99031.13;;;18.09;37.49
10700;BME280;5401;41.986;21.452;2023-02-18T13:13:25;99039.56;;;17.85;36.84
10700;BME280;5401;41.986;21.452;2023-02-18T13:15:57;99025.16;;;17.68;37.44
10700;BME280;5401;41.986;21.452;2023-02-18T13:18:30;99009.22;;;17.44;37.23
10700;BME280;5401;41.986;21.452;2023-02-18T13:21:04;98998.31;;;17.27;37.67
10700;BME280;5401;41.986;21.452;2023-02-18T13:23:34;99027.59;;;17.42;37.96
10700;BME280;5401;41.986;21.452;2023-02-18T13:26:05;99026.16;;;17.50;37.64
10700;BME280;5401;41.986;21.452;2023-02-18T13:28:41;98986.06;;;17.36;37.51
10700;BME280;5401;41.986;21.452;2023-02-18T13:31:18;99016.22;;;17.67;37.67
10700;BME280;5401;41.986;21.452;2023-02-18T13:33:52;99014.91;;;17.70;36.86
10700;BME280;5401;41.986;21.452;2023-02-18T13:36:47;99015.34;;;17.78;36.95
10700;BME280;5401;41.986;21.452;2023-02-18T13:39:20;99022.00;;;17.87;36.50